Eviapetrol II — SY6858 — position and weather

sailwx.info

Track history (hours):
 
Tides and Currents Weather Stations Pressure Air Temp Water Temp Dewpoint Dewpoint Depression Visibility Wind Speed Wind Dir Waves Ship Positions

Eviapetrol II

Last reported at 2015-Mar-30 15:21 UTC. Time now 2015-Mar-31 16:56 UTC.
Position N 37°11' E 025°48'.

Length 78 m; draft 3.4 m.

Type: Tanker. MMSI: 240493000.

Date/timePositionNaut miles runAvg speedWind from/ knotsBaromVisibWave heightAir tempDewpointWater temp
2015-Mar-30 15:21N 37°11' E 025°48'1910.3
2015-Mar-30 13:33N 37°15' E 025°25'1010.1
2015-Mar-30 12:33N 37°17' E 025°13'1210.0
2015-Mar-30 11:22N 37°19' E 024°58'810.0
2015-Mar-30 10:33N 37°22' E 024°48'47 9.5
2015-Mar-30 05:32N 37°37' E 023°51'10 9.7
2015-Mar-30 04:33N 37°42' E 023°41'9 9.2
2015-Mar-30 03:33N 37°49' E 023°34'10 9.5
2015-Mar-30 02:33N 37°51' E 023°22'12 9.6
2015-Mar-30 01:16N 37°54' E 023°07'5 0.2
2015-Mar-28 18:19N 37°53' E 023°14'810.2
2015-Mar-28 17:33N 37°52' E 023°24'1010.2
2015-Mar-28 16:33N 37°50' E 023°36'10 9.5
2015-Mar-28 15:33N 37°43' E 023°44'11 9.2
2015-Mar-28 14:25N 37°38' E 023°56'  
2015-Mar-23 10:32N 37°38' E 023°56'9 9.3
2015-Mar-23 09:34N 37°40' E 023°45'8 8.1
2015-Mar-23 08:33N 37°46' E 023°39'9 8.7
2015-Mar-23 07:33N 37°55' E 023°36'7 0.4
2015-Mar-22 11:24N 38°02' E 023°35'  
Track history (hours):
 
Tides and Currents Weather Stations Pressure Air Temp Water Temp Dewpoint Dewpoint Depression Visibility Wind Speed Wind Dir Waves Ship Positions

Eviapetrol II

Last reported at 2015-Mar-30 15:21 UTC. Time now 2015-Mar-31 16:56 UTC.
Position N 37°11' E 025°48'.

Length 78 m; draft 3.4 m.

Type: Tanker. MMSI: 240493000.

Date/timePositionNaut miles runAvg speedWind from/ knotsBaromVisibWave heightAir tempDewpointWater temp
2015-Mar-30 15:21N 37°11' E 025°48'1910.3
2015-Mar-30 13:33N 37°15' E 025°25'1010.1
2015-Mar-30 12:33N 37°17' E 025°13'1210.0
2015-Mar-30 11:22N 37°19' E 024°58'810.0
2015-Mar-30 10:33N 37°22' E 024°48'47 9.5
2015-Mar-30 05:32N 37°37' E 023°51'10 9.7
2015-Mar-30 04:33N 37°42' E 023°41'9 9.2
2015-Mar-30 03:33N 37°49' E 023°34'10 9.5
2015-Mar-30 02:33N 37°51' E 023°22'12 9.6
2015-Mar-30 01:16N 37°54' E 023°07'5 0.2
2015-Mar-28 18:19N 37°53' E 023°14'810.2
2015-Mar-28 17:33N 37°52' E 023°24'1010.2
2015-Mar-28 16:33N 37°50' E 023°36'10 9.5
2015-Mar-28 15:33N 37°43' E 023°44'11 9.2
2015-Mar-28 14:25N 37°38' E 023°56'  
2015-Mar-23 10:32N 37°38' E 023°56'9 9.3
2015-Mar-23 09:34N 37°40' E 023°45'8 8.1
2015-Mar-23 08:33N 37°46' E 023°39'9 8.7
2015-Mar-23 07:33N 37°55' E 023°36'7 0.4
2015-Mar-22 11:24N 38°02' E 023°35'  

Dump ship's entire track history